createdAt,value
2022-10-19T00:01:23.917Z,103160.28
2022-10-19T00:03:53.100Z,103159.72
2022-10-19T00:06:25.449Z,103157.19
2022-10-19T00:08:59.415Z,103162.41
2022-10-19T00:11:27.025Z,103171.97
2022-10-19T00:13:55.011Z,103166.34
2022-10-19T00:16:22.437Z,103164.22
2022-10-19T00:18:48.860Z,103170.56
2022-10-19T00:21:17.759Z,103158.44
2022-10-19T00:23:45.172Z,103155.94
2022-10-19T00:26:12.882Z,103147.13
2022-10-19T00:28:39.321Z,103153.47
2022-10-19T00:31:08.572Z,103159.34
2022-10-19T00:33:35.171Z,103156.34
2022-10-19T00:36:01.979Z,103148.56
2022-10-19T00:38:28.575Z,103150.13
2022-10-19T00:40:54.917Z,103157.25
2022-10-19T00:43:27.527Z,103155.69
2022-10-19T00:45:53.898Z,103158.03
2022-10-19T00:48:30.452Z,103157.13
2022-10-19T00:50:59.704Z,103158.47
2022-10-19T00:53:28.976Z,103148.38
2022-10-19T00:55:57.176Z,103155.03
2022-10-19T00:58:23.696Z,103153.09
2022-10-19T01:00:50.197Z,103155.28
2022-10-19T01:03:16.697Z,103150.50
2022-10-19T01:05:43.334Z,103151.50
2022-10-19T01:08:11.514Z,103153.53
2022-10-19T01:10:50.755Z,103143.03
2022-10-19T01:13:32.173Z,103144.91
2022-10-19T01:16:18.967Z,103150.22
2022-10-19T01:19:03.772Z,103140.47
2022-10-19T01:21:46.525Z,103145.31
2022-10-19T01:24:16.049Z,103128.50
2022-10-19T01:26:54.403Z,103132.63
2022-10-19T01:30:00.028Z,103133.81
2022-10-19T01:32:38.242Z,103129.50
2022-10-19T01:35:12.455Z,103131.69
2022-10-19T01:38:04.276Z,103126.25
2022-10-19T01:40:30.552Z,103118.34
2022-10-19T01:43:02.522Z,103116.38
2022-10-19T01:45:41.583Z,103111.59
2022-10-19T01:48:16.054Z,103123.56
2022-10-19T01:51:00.223Z,103120.25
2022-10-19T01:53:30.283Z,103125.75
2022-10-19T01:55:58.875Z,103118.13
2022-10-19T01:58:29.500Z,103125.28
2022-10-19T02:00:58.633Z,103120.97
2022-10-19T02:03:25.818Z,103125.63
2022-10-19T02:05:54.003Z,103123.81
2022-10-19T02:08:27.547Z,103114.53
2022-10-19T02:10:57.211Z,103121.88
2022-10-19T02:13:26.176Z,103124.53
2022-10-19T02:15:56.025Z,103119.56
2022-10-19T02:18:33.213Z,103122.88
2022-10-19T02:21:02.447Z,103119.56
2022-10-19T02:23:29.127Z,103112.56
2022-10-19T02:25:56.268Z,103111.09
2022-10-19T02:28:26.973Z,103120.22
2022-10-19T02:30:53.524Z,103119.75
2022-10-19T02:33:20.054Z,103123.59
2022-10-19T02:35:47.900Z,103122.75
2022-10-19T02:38:18.864Z,103116.78
2022-10-19T02:40:55.969Z,103115.28
2022-10-19T02:43:26.371Z,103114.47
2022-10-19T02:46:01.251Z,103111.97
2022-10-19T02:48:31.220Z,103106.66
2022-10-19T02:50:57.543Z,103101.34
2022-10-19T02:53:23.850Z,103108.31
2022-10-19T02:55:51.444Z,103104.53
2022-10-19T02:58:17.921Z,103104.53
2022-10-19T03:00:44.316Z,103102.53
2022-10-19T03:03:11.123Z,103100.88
2022-10-19T03:05:37.615Z,103100.69
2022-10-19T03:08:04.238Z,103093.56
2022-10-19T03:10:30.590Z,103090.44
2022-10-19T03:13:00.124Z,103094.09
2022-10-19T03:15:29.029Z,103092.72
2022-10-19T03:17:56.201Z,103097.41
2022-10-19T03:20:22.867Z,103087.44
2022-10-19T03:22:49.548Z,103077.16
2022-10-19T03:25:16.024Z,103077.88
2022-10-19T03:27:42.321Z,103083.19
2022-10-19T03:30:08.970Z,103079.69
2022-10-19T03:32:35.300Z,103078.53
2022-10-19T03:35:01.694Z,103079.91
2022-10-19T03:37:28.244Z,103089.19
2022-10-19T03:39:54.558Z,103088.72
2022-10-19T03:42:20.857Z,103078.91
2022-10-19T03:44:47.168Z,103076.25
2022-10-19T03:47:13.512Z,103084.22
2022-10-19T03:49:40.386Z,103082.56
2022-10-19T03:52:07.026Z,103079.25
2022-10-19T03:54:33.353Z,103077.25
2022-10-19T03:56:59.680Z,103069.28
2022-10-19T03:59:26.086Z,103073.78
2022-10-19T04:01:52.417Z,103079.41
2022-10-19T04:04:19.779Z,103086.38
2022-10-19T04:06:49.808Z,103078.59
2022-10-19T04:09:19.718Z,103082.41
2022-10-19T04:11:46.581Z,103078.47
2022-10-19T04:14:22.643Z,103080.25
2022-10-19T04:16:58.590Z,103081.75
2022-10-19T04:19:24.924Z,103068.47
2022-10-19T04:21:51.269Z,103079.09
2022-10-19T04:24:18.887Z,103082.91
2022-10-19T04:26:47.763Z,103081.78
2022-10-19T04:29:17.341Z,103080.97
2022-10-19T04:31:43.772Z,103084.28
2022-10-19T04:34:10.482Z,103083.78
2022-10-19T04:36:36.999Z,103087.56
2022-10-19T04:39:04.746Z,103072.84
2022-10-19T04:41:31.087Z,103078.81
2022-10-19T04:43:59.656Z,103074.97
2022-10-19T04:46:27.304Z,103075.81
2022-10-19T04:48:54.565Z,103080.28
2022-10-19T04:51:22.246Z,103084.44
2022-10-19T04:53:49.515Z,103078.16
2022-10-19T04:56:19.044Z,103083.44
2022-10-19T04:58:45.816Z,103079.28
2022-10-19T05:01:15.815Z,103083.44
2022-10-19T05:03:42.463Z,103084.44
2022-10-19T05:06:09.794Z,103086.25
2022-10-19T05:08:36.966Z,103083.59
2022-10-19T05:11:07.060Z,103085.44
2022-10-19T05:13:33.662Z,103083.94
2022-10-19T05:16:02.016Z,103078.31
2022-10-19T05:18:28.944Z,103076.47
2022-10-19T05:21:11.688Z,103074.00
2022-10-19T05:23:39.216Z,103068.84
2022-10-19T05:26:17.546Z,103069.69
2022-10-19T05:28:57.874Z,103063.53
2022-10-19T05:31:26.906Z,103066.38
2022-10-19T05:33:54.168Z,103059.41
2022-10-19T05:36:26.204Z,103055.09
2022-10-19T05:38:55.104Z,103055.09
2022-10-19T05:41:22.507Z,103054.09
2022-10-19T05:43:53.653Z,103063.72
2022-10-19T05:46:19.977Z,103066.38
2022-10-19T05:48:47.336Z,103066.56
2022-10-19T05:51:18.798Z,103063.88
2022-10-19T05:53:45.771Z,103057.94
2022-10-19T05:56:17.907Z,103061.25
2022-10-19T05:58:44.651Z,103064.56
2022-10-19T06:01:11.859Z,103066.06
2022-10-19T06:03:38.256Z,103056.44
2022-10-19T06:06:06.054Z,103056.28
2022-10-19T06:08:33.416Z,103064.88
2022-10-19T06:11:11.372Z,103064.75
2022-10-19T06:13:39.099Z,103061.25
2022-10-19T06:16:06.847Z,103052.28
2022-10-19T06:18:33.276Z,103052.13
2022-10-19T06:21:04.427Z,103058.25
2022-10-19T06:23:35.147Z,103063.22
2022-10-19T06:26:07.140Z,103063.41
2022-10-19T06:28:34.146Z,103074.84
2022-10-19T06:31:00.931Z,103075.66
2022-10-19T06:33:28.364Z,103067.72
2022-10-19T06:35:54.720Z,103074.84
2022-10-19T06:38:21.751Z,103077.16
2022-10-19T06:40:49.111Z,103074.19
2022-10-19T06:43:16.110Z,103071.00
2022-10-19T06:45:42.519Z,103069.22
2022-10-19T06:48:08.912Z,103079.47
2022-10-19T06:50:35.478Z,103072.03
2022-10-19T06:53:01.787Z,103071.34
2022-10-19T06:55:28.236Z,103072.84
2022-10-19T06:57:54.559Z,103063.38
2022-10-19T07:00:20.899Z,103062.69
2022-10-19T07:02:47.219Z,103056.72
2022-10-19T07:05:13.539Z,103058.66
2022-10-19T07:07:39.915Z,103053.84
2022-10-19T07:10:06.586Z,103052.19
2022-10-19T07:12:32.937Z,103054.78
2022-10-19T07:14:59.287Z,103055.59
2022-10-19T07:17:25.731Z,103053.53
2022-10-19T07:19:52.100Z,103053.69
2022-10-19T07:22:22.188Z,103051.16
2022-10-19T07:24:52.268Z,103056.44
2022-10-19T07:27:18.843Z,103051.88
2022-10-19T07:29:45.259Z,103060.66
2022-10-19T07:32:11.586Z,103054.91
2022-10-19T07:34:37.904Z,103052.22
2022-10-19T07:37:04.240Z,103054.66
2022-10-19T07:39:30.674Z,103053.38
2022-10-19T07:41:56.996Z,103062.44
2022-10-19T07:44:23.457Z,103066.47
2022-10-19T07:46:50.365Z,103068.72
2022-10-19T07:49:18.887Z,103064.63
2022-10-19T07:51:46.542Z,103063.81
2022-10-19T07:54:13.505Z,103066.66
2022-10-19T07:56:40.185Z,103068.16
2022-10-19T07:59:06.624Z,103065.88
2022-10-19T08:01:38.191Z,103062.16
2022-10-19T08:06:50.949Z,103061.16
2022-10-19T08:09:40.037Z,103059.44
2022-10-19T08:12:05.422Z,103065.16
2022-10-19T08:14:32.250Z,103065.78
2022-10-19T08:16:58.665Z,103068.44
2022-10-19T08:19:24.982Z,103059.47
2022-10-19T08:21:51.327Z,103060.66
2022-10-19T08:24:19.630Z,103055.84
2022-10-19T08:26:47.826Z,103059.78
2022-10-19T08:29:17.085Z,103063.91
2022-10-19T08:31:45.252Z,103066.81
2022-10-19T08:34:12.856Z,103057.72
2022-10-19T08:36:39.655Z,103044.13
2022-10-19T08:39:08.580Z,103042.47
2022-10-19T08:41:41.171Z,103043.31
2022-10-19T08:44:31.687Z,103046.06
2022-10-19T08:47:41.622Z,103038.13
2022-10-19T08:50:18.669Z,103026.53
2022-10-19T08:52:49.545Z,103030.94
2022-10-19T08:55:23.129Z,103029.94
2022-10-19T08:58:14.324Z,103028.22
2022-10-19T09:00:46.269Z,103022.38
2022-10-19T09:03:54.805Z,103021.16
2022-10-19T09:07:19.929Z,103014.22
2022-10-19T09:09:55.387Z,103001.47
2022-10-19T09:12:37.723Z,102999.94
2022-10-19T09:15:10.286Z,102993.78
2022-10-19T09:17:36.653Z,102995.00
2022-10-19T09:20:18.730Z,102994.28
2022-10-19T09:22:50.830Z,102991.28
2022-10-19T09:25:22.263Z,103000.66
2022-10-19T09:27:58.930Z,102994.81
2022-10-19T09:30:25.576Z,102991.84
2022-10-19T09:32:59.977Z,103004.59
2022-10-19T09:35:28.753Z,102998.16
2022-10-19T09:37:56.302Z,102995.63
2022-10-19T09:40:28.939Z,102997.41
2022-10-19T09:43:02.621Z,102993.44
2022-10-19T09:45:48.639Z,102984.97
2022-10-19T09:48:23.995Z,102976.47
2022-10-19T09:50:59.740Z,102969.75
2022-10-19T09:53:28.114Z,102967.97
2022-10-19T09:56:02.773Z,102969.91
2022-10-19T09:58:32.934Z,102968.75
2022-10-19T10:01:01.074Z,102973.84
2022-10-19T10:03:40.215Z,102969.59
2022-10-19T10:06:14.107Z,102965.41
2022-10-19T10:08:47.421Z,102971.97
2022-10-19T10:11:22.721Z,102969.47
2022-10-19T10:13:52.368Z,102961.88
2022-10-19T10:16:22.147Z,102961.81
2022-10-19T10:18:54.712Z,102957.81
2022-10-19T10:21:28.664Z,102950.03
2022-10-19T10:24:11.763Z,102955.28
2022-10-19T10:26:41.208Z,102969.84
2022-10-19T10:29:19.136Z,102964.88
2022-10-19T10:31:49.752Z,102966.19
2022-10-19T10:34:45.612Z,102965.31
2022-10-19T10:37:25.839Z,102958.44
2022-10-19T10:40:00.304Z,102961.97
2022-10-19T10:42:44.713Z,102959.44
2022-10-19T10:45:31.312Z,102941.94
2022-10-19T10:47:59.701Z,102939.25
2022-10-19T10:50:32.538Z,102943.91
2022-10-19T10:53:38.873Z,102932.59
2022-10-19T10:56:19.418Z,102931.88
2022-10-19T10:59:12.126Z,102928.13
2022-10-19T11:01:51.072Z,102918.47
2022-10-19T11:04:25.387Z,102910.78
2022-10-19T11:06:57.086Z,102904.97
2022-10-19T11:09:36.553Z,102901.94
2022-10-19T11:12:08.953Z,102893.03
2022-10-19T11:14:41.381Z,102899.88
2022-10-19T11:17:17.248Z,102892.44
2022-10-19T11:19:45.056Z,102881.81
2022-10-19T11:22:36.030Z,102890.41
2022-10-19T11:25:26.383Z,102882.78
2022-10-19T11:28:22.948Z,102876.91
2022-10-19T11:31:08.118Z,102869.81
2022-10-19T11:33:53.970Z,102858.59
2022-10-19T11:36:32.489Z,102852.69
2022-10-19T11:39:19.271Z,102852.56
2022-10-19T11:42:05.684Z,102843.38
2022-10-19T11:44:46.870Z,102847.13
2022-10-19T11:47:32.357Z,102837.72
2022-10-19T11:53:06.007Z,102831.84
2022-10-19T11:55:40.555Z,102819.31
2022-10-19T11:58:20.706Z,102814.41
2022-10-19T12:00:58.763Z,102810.50
2022-10-19T12:03:37.132Z,102810.00
2022-10-19T12:06:14.343Z,102804.88
2022-10-19T12:08:50.142Z,102794.59
2022-10-19T12:11:41.214Z,102783.75
2022-10-19T12:14:14.112Z,102794.59
2022-10-19T12:16:44.164Z,102785.69
2022-10-19T12:19:18.165Z,102782.91
2022-10-19T12:21:45.766Z,102769.28
2022-10-19T12:24:22.606Z,102759.94
2022-10-19T12:26:50.867Z,102760.44
2022-10-19T12:29:40.601Z,102747.69
2022-10-19T12:32:07.998Z,102749.06
2022-10-19T12:35:00.269Z,102744.38
2022-10-19T12:37:44.034Z,102731.03
2022-10-19T12:40:39.988Z,102731.31
2022-10-19T12:43:10.693Z,102729.31
2022-10-19T12:45:44.407Z,102727.31
2022-10-19T12:48:18.914Z,102726.78
2022-10-19T12:50:48.412Z,102704.38
2022-10-19T12:56:03.990Z,102698.97
2022-10-19T12:58:47.441Z,102698.69
2022-10-19T13:01:24.328Z,102686.31
2022-10-19T13:04:07.244Z,102685.69
2022-10-19T13:06:36.443Z,102688.22
2022-10-19T13:09:06.258Z,102673.66
2022-10-19T13:14:26.052Z,102672.50
2022-10-19T13:16:57.138Z,102653.91
2022-10-19T13:19:24.436Z,102663.44
2022-10-19T13:22:00.984Z,102654.91
2022-10-19T13:24:27.344Z,102649.81
2022-10-19T13:26:59.741Z,102643.47
2022-10-19T13:29:27.667Z,102647.66
2022-10-19T13:31:54.287Z,102647.91
2022-10-19T13:34:24.169Z,102637.19
2022-10-19T13:37:18.447Z,102630.28
2022-10-19T13:39:44.832Z,102635.47
2022-10-19T13:42:37.637Z,102640.72
2022-10-19T13:45:05.066Z,102635.19
2022-10-19T13:47:39.806Z,102629.28
2022-10-19T13:50:31.235Z,102624.44
2022-10-19T13:53:09.759Z,102619.66
2022-10-19T13:56:07.671Z,102621.78
2022-10-19T13:59:07.991Z,102622.53
2022-10-19T14:02:02.241Z,102615.31
2022-10-19T14:04:44.352Z,102616.72
2022-10-19T14:07:17.350Z,102613.25
2022-10-19T14:10:00.227Z,102618.19
2022-10-19T14:12:30.099Z,102622.72
2022-10-19T14:14:57.344Z,102623.16
2022-10-19T14:17:33.421Z,102627.19
2022-10-19T14:20:00.512Z,102627.00
2022-10-19T14:22:30.018Z,102630.19
2022-10-19T14:25:02.215Z,102633.53
2022-10-19T14:27:30.326Z,102634.63
2022-10-19T14:29:57.477Z,102628.38
2022-10-19T14:32:27.311Z,102633.81
2022-10-19T14:34:57.426Z,102631.34
2022-10-19T14:37:26.720Z,102619.19
2022-10-19T14:40:26.792Z,102613.88
2022-10-19T14:42:55.143Z,102619.16
2022-10-19T14:45:27.302Z,102617.56
2022-10-19T14:47:59.721Z,102616.59
2022-10-19T14:50:51.375Z,102610.16
2022-10-19T14:53:30.374Z,102609.66
2022-10-19T14:56:04.675Z,102604.53
2022-10-19T14:58:40.049Z,102607.00
2022-10-19T15:01:07.336Z,102593.69
2022-10-19T15:03:34.315Z,102591.50
2022-10-19T15:06:06.313Z,102576.31
2022-10-19T15:08:42.559Z,102583.84
2022-10-19T15:11:23.762Z,102580.03
2022-10-19T15:14:00.559Z,102571.59
2022-10-19T15:16:42.146Z,102568.03
2022-10-19T15:19:25.037Z,102568.00
2022-10-19T15:22:21.505Z,102564.97
2022-10-19T15:25:14.111Z,102560.56
2022-10-19T15:27:45.437Z,102556.47
2022-10-19T15:30:17.737Z,102552.63
2022-10-19T15:33:10.427Z,102544.69
2022-10-19T15:35:39.467Z,102536.22
2022-10-19T15:38:19.858Z,102533.69
2022-10-19T15:40:47.129Z,102526.34
2022-10-19T15:43:34.604Z,102526.78
2022-10-19T15:46:19.765Z,102527.47
2022-10-19T15:48:52.306Z,102535.84
2022-10-19T15:51:48.021Z,102539.03
2022-10-19T15:54:17.121Z,102529.78
2022-10-19T15:56:46.598Z,102521.69
2022-10-19T15:59:19.501Z,102521.88
2022-10-19T16:01:55.110Z,102513.91
2022-10-19T16:04:22.382Z,102507.59
2022-10-19T16:06:48.732Z,102503.34
2022-10-19T16:09:20.562Z,102498.34
2022-10-19T16:11:47.615Z,102492.84
2022-10-19T16:14:14.056Z,102483.59
2022-10-19T16:16:41.839Z,102486.69
2022-10-19T16:19:09.820Z,102484.72
2022-10-19T16:21:38.183Z,102489.28
2022-10-19T16:24:04.754Z,102479.69
2022-10-19T16:26:32.286Z,102479.69
2022-10-19T16:28:59.659Z,102473.06
2022-10-19T16:31:26.075Z,102472.13
2022-10-19T16:33:52.599Z,102484.34
2022-10-19T16:36:20.303Z,102476.44
2022-10-19T16:38:47.492Z,102484.13
2022-10-19T16:41:14.472Z,102482.50
2022-10-19T16:43:40.858Z,102489.34
2022-10-19T16:46:07.470Z,102486.59
2022-10-19T16:48:34.385Z,102483.25
2022-10-19T16:51:06.913Z,102479.38
2022-10-19T16:53:34.775Z,102482.09
2022-10-19T16:56:06.037Z,102470.09
2022-10-19T16:58:32.357Z,102471.16
2022-10-19T17:01:01.394Z,102456.22
2022-10-19T17:03:30.752Z,102455.34
2022-10-19T17:05:57.160Z,102451.25
2022-10-19T17:08:36.394Z,102453.31
2022-10-19T17:11:12.620Z,102448.31
2022-10-19T17:13:39.426Z,102447.41
2022-10-19T17:16:06.967Z,102448.94
2022-10-19T17:18:33.741Z,102454.59
2022-10-19T17:21:05.383Z,102455.81
2022-10-19T17:23:31.816Z,102443.66
2022-10-19T17:25:58.241Z,102443.59
2022-10-19T17:28:27.719Z,102438.69
2022-10-19T17:30:54.288Z,102445.81
2022-10-19T17:33:21.547Z,102436.00
2022-10-19T17:35:47.935Z,102434.03
2022-10-19T17:38:14.404Z,102431.81
2022-10-19T17:40:40.768Z,102430.56
2022-10-19T17:43:07.184Z,102436.06
2022-10-19T17:45:33.591Z,102444.94
2022-10-19T17:47:59.944Z,102433.50
2022-10-19T17:50:26.248Z,102431.88
2022-10-19T17:52:52.587Z,102426.88
2022-10-19T17:55:19.000Z,102433.63
2022-10-19T17:57:45.439Z,102426.63
2022-10-19T18:00:12.216Z,102421.97
2022-10-19T18:02:39.803Z,102428.53
2022-10-19T18:05:06.437Z,102420.47
2022-10-19T18:07:32.997Z,102426.09
2022-10-19T18:09:59.474Z,102432.13
2022-10-19T18:12:26.647Z,102444.41
2022-10-19T18:14:52.949Z,102446.16
2022-10-19T18:17:21.623Z,102448.50
2022-10-19T18:19:49.308Z,102442.31
2022-10-19T18:22:15.668Z,102449.19
2022-10-19T18:24:41.984Z,102444.06
2022-10-19T18:27:08.367Z,102444.88
2022-10-19T18:29:34.718Z,102443.72
2022-10-19T18:32:01.457Z,102438.81
2022-10-19T18:34:27.936Z,102437.63
2022-10-19T18:36:55.036Z,102430.28
2022-10-19T18:39:21.736Z,102426.22
2022-10-19T18:41:54.028Z,102427.13
2022-10-19T18:44:25.278Z,102417.56
2022-10-19T18:46:53.755Z,102411.63
2022-10-19T18:49:20.299Z,102406.94
2022-10-19T18:51:50.741Z,102395.50
2022-10-19T18:54:20.857Z,102396.56
2022-10-19T18:56:47.232Z,102400.75
2022-10-19T18:59:13.715Z,102399.59
2022-10-19T19:01:40.193Z,102400.03
2022-10-19T19:04:09.022Z,102391.41
2022-10-19T19:06:36.515Z,102391.84
2022-10-19T19:09:07.458Z,102394.19
2022-10-19T19:11:36.994Z,102402.09
2022-10-19T19:14:22.492Z,102387.97
2022-10-19T19:16:48.817Z,102381.78
2022-10-19T19:19:17.737Z,102377.69
2022-10-19T19:21:45.152Z,102373.59
2022-10-19T19:24:17.215Z,102375.94
2022-10-19T19:26:48.172Z,102372.06
2022-10-19T19:29:15.035Z,102368.00
2022-10-19T19:31:41.393Z,102352.13
2022-10-19T19:34:09.268Z,102341.88
2022-10-19T19:36:38.000Z,102330.19
2022-10-19T19:39:05.266Z,102318.53
2022-10-19T19:41:33.984Z,102326.00
2022-10-19T19:44:00.480Z,102313.88
2022-10-19T19:46:26.884Z,102304.88
2022-10-19T19:48:59.949Z,102300.81
2022-10-19T19:51:27.204Z,102303.34
2022-10-19T19:53:53.548Z,102300.06
2022-10-19T19:56:20.752Z,102293.56
2022-10-19T19:58:47.595Z,102279.56
2022-10-19T20:01:19.025Z,102283.16
2022-10-19T20:03:46.734Z,102284.66
2022-10-19T20:06:15.181Z,102283.03
2022-10-19T20:08:41.999Z,102285.13
2022-10-19T20:11:12.929Z,102276.13
2022-10-19T20:13:39.736Z,102273.31
2022-10-19T20:16:12.428Z,102269.00
2022-10-19T20:18:40.599Z,102261.19
2022-10-19T20:21:07.110Z,102257.34
2022-10-19T20:23:33.523Z,102258.97
2022-10-19T20:25:59.917Z,102254.31
2022-10-19T20:28:27.886Z,102261.13
2022-10-19T20:31:06.569Z,102256.91
2022-10-19T20:33:35.155Z,102262.50
2022-10-19T20:36:08.692Z,102251.00
2022-10-19T20:38:38.410Z,102242.38
2022-10-19T20:41:08.025Z,102240.94
2022-10-19T20:43:36.259Z,102240.72
2022-10-19T20:46:08.221Z,102239.34
2022-10-19T20:48:34.572Z,102226.59
2022-10-19T20:51:16.282Z,102219.84
2022-10-19T20:53:46.204Z,102212.06
2022-10-19T20:56:14.744Z,102225.88
2022-10-19T20:58:43.351Z,102212.94
2022-10-19T21:01:13.102Z,102209.09
2022-10-19T21:03:39.977Z,102217.72
2022-10-19T21:06:08.476Z,102213.03
2022-10-19T21:08:35.903Z,102211.63
2022-10-19T21:11:12.112Z,102214.75
2022-10-19T21:13:38.467Z,102209.63
2022-10-19T21:16:09.857Z,102205.31
2022-10-19T21:18:36.176Z,102207.63
2022-10-19T21:21:14.157Z,102204.81
2022-10-19T21:23:41.387Z,102208.16
2022-10-19T21:26:07.748Z,102204.66
2022-10-19T21:28:34.160Z,102207.19
2022-10-19T21:31:08.359Z,102206.00
2022-10-19T21:33:35.781Z,102207.03
2022-10-19T21:36:04.197Z,102202.13
2022-10-19T21:38:30.909Z,102198.88
2022-10-19T21:41:08.714Z,102206.31
2022-10-19T21:43:35.471Z,102204.66
2022-10-19T21:46:03.524Z,102196.03
2022-10-19T21:48:30.562Z,102193.59
2022-10-19T21:50:57.129Z,102191.13
2022-10-19T21:53:23.612Z,102188.91
2022-10-19T21:55:51.704Z,102190.56
2022-10-19T21:58:21.524Z,102188.94
2022-10-19T22:00:48.443Z,102191.25
2022-10-19T22:03:17.189Z,102178.91
2022-10-19T22:05:51.388Z,102176.91
2022-10-19T22:08:17.722Z,102170.16
2022-10-19T22:10:44.032Z,102168.72
2022-10-19T22:13:10.472Z,102158.13
2022-10-19T22:15:38.129Z,102160.41
2022-10-19T22:18:05.363Z,102152.63
2022-10-19T22:20:31.867Z,102149.72
2022-10-19T22:22:58.237Z,102157.38
2022-10-19T22:25:24.562Z,102162.94
2022-10-19T22:27:50.914Z,102154.94
2022-10-19T22:30:17.334Z,102146.91
2022-10-19T22:32:43.742Z,102144.69
2022-10-19T22:35:10.064Z,102135.25
2022-10-19T22:37:36.385Z,102136.06
2022-10-19T22:40:02.790Z,102132.00
2022-10-19T22:42:29.199Z,102123.16
2022-10-19T22:44:55.615Z,102124.19
2022-10-19T22:47:22.019Z,102121.56
2022-10-19T22:49:48.352Z,102117.28
2022-10-19T22:52:16.324Z,102113.56
2022-10-19T22:54:43.085Z,102101.03
2022-10-19T22:57:11.677Z,102097.53
2022-10-19T22:59:38.487Z,102091.75
2022-10-19T23:02:04.984Z,102085.81
2022-10-19T23:04:31.455Z,102090.56
2022-10-19T23:06:57.821Z,102090.44
2022-10-19T23:09:24.236Z,102079.94
2022-10-19T23:11:50.575Z,102080.41
2022-10-19T23:14:16.965Z,102075.88
2022-10-19T23:16:43.312Z,102080.78
2022-10-19T23:19:09.653Z,102078.34
2022-10-19T23:21:35.982Z,102088.41
2022-10-19T23:24:02.396Z,102072.00
2022-10-19T23:26:28.803Z,102067.94
2022-10-19T23:28:55.161Z,102069.78
2022-10-19T23:31:26.260Z,102066.91
2022-10-19T23:33:53.438Z,102060.53
2022-10-19T23:36:22.345Z,102058.44
2022-10-19T23:38:50.350Z,102048.81
2022-10-19T23:41:17.813Z,102036.72
2022-10-19T23:43:44.578Z,102039.59
2022-10-19T23:46:11.475Z,102037.38
2022-10-19T23:48:37.903Z,102034.94
2022-10-19T23:51:10.631Z,102032.84
2022-10-19T23:53:41.037Z,102031.22
2022-10-19T23:56:20.571Z,102020.53
2022-10-19T23:58:47.622Z,102016.00
